sensor_id;sensor_type;location;lat;lon;timestamp;P1;durP1;ratioP1;P2;durP2;ratioP2
2720;SDS011;1368;49.484;11.112;2023-05-29T00:00:18;11.23;;;5.30;;
2720;SDS011;1368;49.484;11.112;2023-05-29T00:02:45;10.63;;;5.80;;
2720;SDS011;1368;49.484;11.112;2023-05-29T00:05:11;7.20;;;5.20;;
2720;SDS011;1368;49.484;11.112;2023-05-29T00:07:38;10.30;;;5.50;;
2720;SDS011;1368;49.484;11.112;2023-05-29T00:10:04;8.40;;;5.13;;
2720;SDS011;1368;49.484;11.112;2023-05-29T00:12:31;7.20;;;5.10;;
2720;SDS011;1368;49.484;11.112;2023-05-29T00:14:57;8.30;;;4.70;;
2720;SDS011;1368;49.484;11.112;2023-05-29T00:17:22;7.23;;;5.10;;
2720;SDS011;1368;49.484;11.112;2023-05-29T00:19:48;9.30;;;5.40;;
2720;SDS011;1368;49.484;11.112;2023-05-29T00:22:14;8.47;;;5.27;;
2720;SDS011;1368;49.484;11.112;2023-05-29T00:24:39;11.40;;;5.63;;
2720;SDS011;1368;49.484;11.112;2023-05-29T00:27:05;14.67;;;5.60;;
2720;SDS011;1368;49.484;11.112;2023-05-29T00:29:31;8.70;;;5.23;;
2720;SDS011;1368;49.484;11.112;2023-05-29T00:31:56;11.10;;;6.63;;
2720;SDS011;1368;49.484;11.112;2023-05-29T00:34:22;9.23;;;5.80;;
2720;SDS011;1368;49.484;11.112;2023-05-29T00:36:48;7.70;;;5.27;;
2720;SDS011;1368;49.484;11.112;2023-05-29T00:39:14;11.50;;;6.00;;
2720;SDS011;1368;49.484;11.112;2023-05-29T00:41:40;10.70;;;6.13;;
2720;SDS011;1368;49.484;11.112;2023-05-29T00:44:06;13.30;;;9.07;;
2720;SDS011;1368;49.484;11.112;2023-05-29T00:46:32;14.20;;;8.57;;
2720;SDS011;1368;49.484;11.112;2023-05-29T00:48:58;16.23;;;9.60;;
2720;SDS011;1368;49.484;11.112;2023-05-29T00:51:25;13.93;;;11.20;;
2720;SDS011;1368;49.484;11.112;2023-05-29T00:53:52;8.23;;;5.27;;
2720;SDS011;1368;49.484;11.112;2023-05-29T00:56:18;19.43;;;6.30;;
2720;SDS011;1368;49.484;11.112;2023-05-29T00:58:45;9.90;;;5.27;;
2720;SDS011;1368;49.484;11.112;2023-05-29T01:01:17;11.63;;;6.70;;
2720;SDS011;1368;49.484;11.112;2023-05-29T01:03:43;9.77;;;5.40;;
2720;SDS011;1368;49.484;11.112;2023-05-29T01:06:10;15.63;;;5.13;;
2720;SDS011;1368;49.484;11.112;2023-05-29T01:08:36;9.90;;;5.60;;
2720;SDS011;1368;49.484;11.112;2023-05-29T01:11:12;8.80;;;5.00;;
2720;SDS011;1368;49.484;11.112;2023-05-29T01:13:44;8.83;;;6.37;;
2720;SDS011;1368;49.484;11.112;2023-05-29T01:18:49;11.07;;;6.13;;
2720;SDS011;1368;49.484;11.112;2023-05-29T01:29:26;8.63;;;5.50;;
2720;SDS011;1368;49.484;11.112;2023-05-29T01:31:55;9.27;;;5.57;;
2720;SDS011;1368;49.484;11.112;2023-05-29T01:34:21;9.17;;;5.90;;
2720;SDS011;1368;49.484;11.112;2023-05-29T01:36:47;9.97;;;5.53;;
2720;SDS011;1368;49.484;11.112;2023-05-29T01:39:12;8.87;;;5.40;;
2720;SDS011;1368;49.484;11.112;2023-05-29T01:41:39;10.97;;;5.70;;
2720;SDS011;1368;49.484;11.112;2023-05-29T01:44:06;11.20;;;6.10;;
2720;SDS011;1368;49.484;11.112;2023-05-29T01:46:33;12.10;;;6.47;;
2720;SDS011;1368;49.484;11.112;2023-05-29T01:49:01;10.10;;;5.80;;
2720;SDS011;1368;49.484;11.112;2023-05-29T01:51:26;13.23;;;6.80;;
2720;SDS011;1368;49.484;11.112;2023-05-29T01:53:52;8.93;;;5.73;;
2720;SDS011;1368;49.484;11.112;2023-05-29T01:56:18;11.63;;;5.90;;
2720;SDS011;1368;49.484;11.112;2023-05-29T01:58:44;12.27;;;6.00;;
2720;SDS011;1368;49.484;11.112;2023-05-29T02:01:10;10.07;;;6.67;;
2720;SDS011;1368;49.484;11.112;2023-05-29T02:03:36;8.20;;;5.93;;
2720;SDS011;1368;49.484;11.112;2023-05-29T02:06:02;10.00;;;6.17;;
2720;SDS011;1368;49.484;11.112;2023-05-29T02:08:27;13.60;;;7.10;;
2720;SDS011;1368;49.484;11.112;2023-05-29T02:10:53;9.00;;;5.50;;
2720;SDS011;1368;49.484;11.112;2023-05-29T02:13:19;8.90;;;6.17;;
2720;SDS011;1368;49.484;11.112;2023-05-29T02:15:45;10.50;;;6.00;;
2720;SDS011;1368;49.484;11.112;2023-05-29T02:18:12;10.40;;;5.90;;
2720;SDS011;1368;49.484;11.112;2023-05-29T02:20:39;8.77;;;6.50;;
2720;SDS011;1368;49.484;11.112;2023-05-29T02:23:05;11.37;;;6.40;;
2720;SDS011;1368;49.484;11.112;2023-05-29T02:25:33;14.27;;;6.30;;
2720;SDS011;1368;49.484;11.112;2023-05-29T02:27:59;11.40;;;5.87;;
2720;SDS011;1368;49.484;11.112;2023-05-29T02:30:25;8.80;;;6.37;;
2720;SDS011;1368;49.484;11.112;2023-05-29T02:32:50;11.33;;;5.77;;
2720;SDS011;1368;49.484;11.112;2023-05-29T02:35:16;9.83;;;5.80;;
2720;SDS011;1368;49.484;11.112;2023-05-29T02:37:43;8.00;;;5.60;;
2720;SDS011;1368;49.484;11.112;2023-05-29T02:40:08;10.80;;;5.87;;
2720;SDS011;1368;49.484;11.112;2023-05-29T02:42:34;12.47;;;7.07;;
2720;SDS011;1368;49.484;11.112;2023-05-29T02:45:00;10.80;;;6.70;;
2720;SDS011;1368;49.484;11.112;2023-05-29T02:47:26;10.27;;;6.33;;
2720;SDS011;1368;49.484;11.112;2023-05-29T02:49:51;10.50;;;6.70;;
2720;SDS011;1368;49.484;11.112;2023-05-29T02:52:17;11.43;;;6.50;;
2720;SDS011;1368;49.484;11.112;2023-05-29T02:54:42;10.30;;;6.20;;
2720;SDS011;1368;49.484;11.112;2023-05-29T02:57:08;10.43;;;5.47;;
2720;SDS011;1368;49.484;11.112;2023-05-29T02:59:34;8.97;;;5.87;;
2720;SDS011;1368;49.484;11.112;2023-05-29T03:02:00;18.50;;;7.00;;
2720;SDS011;1368;49.484;11.112;2023-05-29T03:04:26;12.00;;;6.00;;
2720;SDS011;1368;49.484;11.112;2023-05-29T03:06:52;10.63;;;6.30;;
2720;SDS011;1368;49.484;11.112;2023-05-29T03:09:18;8.77;;;5.80;;
2720;SDS011;1368;49.484;11.112;2023-05-29T03:11:44;10.50;;;6.67;;
2720;SDS011;1368;49.484;11.112;2023-05-29T03:14:10;9.27;;;6.87;;
2720;SDS011;1368;49.484;11.112;2023-05-29T03:16:35;12.03;;;7.07;;
2720;SDS011;1368;49.484;11.112;2023-05-29T03:19:03;11.20;;;5.93;;
2720;SDS011;1368;49.484;11.112;2023-05-29T03:21:28;8.50;;;5.50;;
2720;SDS011;1368;49.484;11.112;2023-05-29T03:23:54;7.80;;;6.13;;
2720;SDS011;1368;49.484;11.112;2023-05-29T03:26:19;12.97;;;6.30;;
2720;SDS011;1368;49.484;11.112;2023-05-29T03:28:46;13.57;;;6.17;;
2720;SDS011;1368;49.484;11.112;2023-05-29T03:31:12;11.10;;;6.43;;
2720;SDS011;1368;49.484;11.112;2023-05-29T03:33:37;10.97;;;5.97;;
2720;SDS011;1368;49.484;11.112;2023-05-29T03:36:03;10.83;;;5.97;;
2720;SDS011;1368;49.484;11.112;2023-05-29T03:38:28;8.00;;;5.50;;
2720;SDS011;1368;49.484;11.112;2023-05-29T03:40:54;9.50;;;5.50;;
2720;SDS011;1368;49.484;11.112;2023-05-29T03:43:19;11.20;;;6.80;;
2720;SDS011;1368;49.484;11.112;2023-05-29T03:45:45;9.33;;;5.83;;
2720;SDS011;1368;49.484;11.112;2023-05-29T03:48:10;14.07;;;6.73;;
2720;SDS011;1368;49.484;11.112;2023-05-29T03:50:36;13.97;;;5.67;;
2720;SDS011;1368;49.484;11.112;2023-05-29T03:53:01;12.00;;;5.63;;
2720;SDS011;1368;49.484;11.112;2023-05-29T03:55:27;8.00;;;5.37;;
2720;SDS011;1368;49.484;11.112;2023-05-29T03:57:53;10.70;;;6.37;;
2720;SDS011;1368;49.484;11.112;2023-05-29T04:00:18;11.10;;;5.93;;
2720;SDS011;1368;49.484;11.112;2023-05-29T04:02:44;10.20;;;6.07;;
2720;SDS011;1368;49.484;11.112;2023-05-29T04:05:10;12.13;;;6.77;;
2720;SDS011;1368;49.484;11.112;2023-05-29T04:07:37;8.70;;;6.27;;
2720;SDS011;1368;49.484;11.112;2023-05-29T04:10:03;9.10;;;5.93;;
2720;SDS011;1368;49.484;11.112;2023-05-29T04:12:29;9.30;;;5.90;;
2720;SDS011;1368;49.484;11.112;2023-05-29T04:14:55;9.33;;;5.90;;
2720;SDS011;1368;49.484;11.112;2023-05-29T04:17:20;9.50;;;5.73;;
2720;SDS011;1368;49.484;11.112;2023-05-29T04:19:46;9.70;;;7.20;;
2720;SDS011;1368;49.484;11.112;2023-05-29T04:22:12;11.83;;;7.03;;
2720;SDS011;1368;49.484;11.112;2023-05-29T04:24:38;11.30;;;7.20;;
2720;SDS011;1368;49.484;11.112;2023-05-29T04:27:03;9.37;;;6.33;;
2720;SDS011;1368;49.484;11.112;2023-05-29T04:29:29;8.87;;;6.07;;
2720;SDS011;1368;49.484;11.112;2023-05-29T04:31:55;8.17;;;5.90;;
2720;SDS011;1368;49.484;11.112;2023-05-29T04:34:21;9.77;;;6.40;;
2720;SDS011;1368;49.484;11.112;2023-05-29T04:36:47;7.73;;;5.63;;
2720;SDS011;1368;49.484;11.112;2023-05-29T04:39:13;12.27;;;6.80;;
2720;SDS011;1368;49.484;11.112;2023-05-29T04:41:42;12.43;;;6.40;;
2720;SDS011;1368;49.484;11.112;2023-05-29T04:44:08;8.90;;;5.43;;
2720;SDS011;1368;49.484;11.112;2023-05-29T04:46:36;9.77;;;6.20;;
2720;SDS011;1368;49.484;11.112;2023-05-29T04:49:03;9.70;;;6.80;;
2720;SDS011;1368;49.484;11.112;2023-05-29T04:51:29;9.30;;;5.93;;
2720;SDS011;1368;49.484;11.112;2023-05-29T04:53:55;10.50;;;6.00;;
2720;SDS011;1368;49.484;11.112;2023-05-29T04:56:21;11.70;;;6.20;;
2720;SDS011;1368;49.484;11.112;2023-05-29T04:58:47;11.20;;;6.23;;
2720;SDS011;1368;49.484;11.112;2023-05-29T05:01:13;11.07;;;5.83;;
2720;SDS011;1368;49.484;11.112;2023-05-29T05:03:39;10.63;;;6.27;;
2720;SDS011;1368;49.484;11.112;2023-05-29T05:06:05;10.00;;;5.93;;
2720;SDS011;1368;49.484;11.112;2023-05-29T05:08:32;9.50;;;5.70;;
2720;SDS011;1368;49.484;11.112;2023-05-29T05:10:59;8.30;;;5.77;;
2720;SDS011;1368;49.484;11.112;2023-05-29T05:13:25;10.03;;;6.60;;
2720;SDS011;1368;49.484;11.112;2023-05-29T05:15:51;8.77;;;6.10;;
2720;SDS011;1368;49.484;11.112;2023-05-29T05:18:17;13.03;;;6.57;;
2720;SDS011;1368;49.484;11.112;2023-05-29T05:20:43;8.13;;;6.00;;
2720;SDS011;1368;49.484;11.112;2023-05-29T05:23:09;9.40;;;5.77;;
2720;SDS011;1368;49.484;11.112;2023-05-29T05:25:35;7.73;;;5.90;;
2720;SDS011;1368;49.484;11.112;2023-05-29T05:28:02;7.13;;;5.30;;
2720;SDS011;1368;49.484;11.112;2023-05-29T05:30:31;7.50;;;6.33;;
2720;SDS011;1368;49.484;11.112;2023-05-29T05:32:57;10.30;;;4.60;;
2720;SDS011;1368;49.484;11.112;2023-05-29T05:35:23;7.20;;;4.90;;
2720;SDS011;1368;49.484;11.112;2023-05-29T05:37:49;8.33;;;4.90;;
2720;SDS011;1368;49.484;11.112;2023-05-29T05:40:15;9.67;;;5.60;;
2720;SDS011;1368;49.484;11.112;2023-05-29T05:42:40;7.50;;;4.43;;
2720;SDS011;1368;49.484;11.112;2023-05-29T05:45:06;6.10;;;4.93;;
2720;SDS011;1368;49.484;11.112;2023-05-29T05:47:32;8.20;;;5.10;;
2720;SDS011;1368;49.484;11.112;2023-05-29T05:49:58;6.97;;;4.90;;
2720;SDS011;1368;49.484;11.112;2023-05-29T05:52:24;8.37;;;4.40;;
2720;SDS011;1368;49.484;11.112;2023-05-29T05:54:51;7.27;;;4.80;;
2720;SDS011;1368;49.484;11.112;2023-05-29T05:57:17;7.60;;;4.40;;
2720;SDS011;1368;49.484;11.112;2023-05-29T05:59:42;9.07;;;4.83;;
2720;SDS011;1368;49.484;11.112;2023-05-29T06:02:08;6.40;;;4.23;;
2720;SDS011;1368;49.484;11.112;2023-05-29T06:04:34;6.20;;;4.53;;
2720;SDS011;1368;49.484;11.112;2023-05-29T06:07:00;6.90;;;5.07;;
2720;SDS011;1368;49.484;11.112;2023-05-29T06:09:26;9.73;;;4.63;;
2720;SDS011;1368;49.484;11.112;2023-05-29T06:11:51;5.83;;;4.23;;
2720;SDS011;1368;49.484;11.112;2023-05-29T06:14:17;7.03;;;4.80;;
2720;SDS011;1368;49.484;11.112;2023-05-29T06:16:42;7.17;;;4.27;;
2720;SDS011;1368;49.484;11.112;2023-05-29T06:19:08;7.03;;;5.00;;
2720;SDS011;1368;49.484;11.112;2023-05-29T06:21:34;5.30;;;4.40;;
2720;SDS011;1368;49.484;11.112;2023-05-29T06:24:00;7.60;;;4.27;;
2720;SDS011;1368;49.484;11.112;2023-05-29T06:26:26;8.63;;;4.97;;
2720;SDS011;1368;49.484;11.112;2023-05-29T06:28:51;8.10;;;4.50;;
2720;SDS011;1368;49.484;11.112;2023-05-29T06:31:17;7.60;;;4.17;;
2720;SDS011;1368;49.484;11.112;2023-05-29T06:33:43;5.87;;;4.10;;
2720;SDS011;1368;49.484;11.112;2023-05-29T06:36:09;7.87;;;4.37;;
2720;SDS011;1368;49.484;11.112;2023-05-29T06:38:35;7.23;;;4.60;;
2720;SDS011;1368;49.484;11.112;2023-05-29T06:41:01;6.17;;;4.47;;
2720;SDS011;1368;49.484;11.112;2023-05-29T06:43:27;8.20;;;4.80;;
2720;SDS011;1368;49.484;11.112;2023-05-29T06:45:53;7.60;;;4.47;;
2720;SDS011;1368;49.484;11.112;2023-05-29T06:48:18;10.57;;;4.63;;
2720;SDS011;1368;49.484;11.112;2023-05-29T06:50:44;5.87;;;4.17;;
2720;SDS011;1368;49.484;11.112;2023-05-29T06:53:10;6.70;;;4.50;;
2720;SDS011;1368;49.484;11.112;2023-05-29T06:55:35;8.00;;;4.47;;
2720;SDS011;1368;49.484;11.112;2023-05-29T06:58:01;6.80;;;4.50;;
2720;SDS011;1368;49.484;11.112;2023-05-29T07:00:26;6.23;;;4.37;;
2720;SDS011;1368;49.484;11.112;2023-05-29T07:02:52;9.23;;;4.60;;
2720;SDS011;1368;49.484;11.112;2023-05-29T07:05:18;12.93;;;4.27;;
2720;SDS011;1368;49.484;11.112;2023-05-29T07:07:43;7.97;;;3.93;;
2720;SDS011;1368;49.484;11.112;2023-05-29T07:10:09;7.87;;;4.00;;
2720;SDS011;1368;49.484;11.112;2023-05-29T07:12:35;7.73;;;4.30;;
2720;SDS011;1368;49.484;11.112;2023-05-29T07:15:00;6.47;;;3.97;;
2720;SDS011;1368;49.484;11.112;2023-05-29T07:17:26;7.23;;;4.43;;
2720;SDS011;1368;49.484;11.112;2023-05-29T07:19:52;7.90;;;4.30;;
2720;SDS011;1368;49.484;11.112;2023-05-29T07:22:19;7.27;;;4.40;;
2720;SDS011;1368;49.484;11.112;2023-05-29T07:24:45;7.23;;;4.07;;
2720;SDS011;1368;49.484;11.112;2023-05-29T07:27:10;5.07;;;3.67;;
2720;SDS011;1368;49.484;11.112;2023-05-29T07:29:36;10.83;;;5.60;;
2720;SDS011;1368;49.484;11.112;2023-05-29T07:32:01;13.83;;;4.17;;
2720;SDS011;1368;49.484;11.112;2023-05-29T07:34:27;5.87;;;3.77;;
2720;SDS011;1368;49.484;11.112;2023-05-29T07:36:57;4.93;;;4.00;;
2720;SDS011;1368;49.484;11.112;2023-05-29T07:39:27;7.17;;;4.37;;
2720;SDS011;1368;49.484;11.112;2023-05-29T07:41:53;7.97;;;3.93;;
2720;SDS011;1368;49.484;11.112;2023-05-29T07:44:19;8.47;;;4.50;;
2720;SDS011;1368;49.484;11.112;2023-05-29T07:46:45;6.97;;;4.00;;
2720;SDS011;1368;49.484;11.112;2023-05-29T07:49:10;7.00;;;4.10;;
2720;SDS011;1368;49.484;11.112;2023-05-29T07:51:36;5.10;;;3.70;;
2720;SDS011;1368;49.484;11.112;2023-05-29T07:54:02;5.23;;;3.70;;
2720;SDS011;1368;49.484;11.112;2023-05-29T07:56:27;6.40;;;4.40;;
2720;SDS011;1368;49.484;11.112;2023-05-29T07:58:53;4.77;;;3.43;;
2720;SDS011;1368;49.484;11.112;2023-05-29T08:01:19;5.60;;;3.83;;
2720;SDS011;1368;49.484;11.112;2023-05-29T08:03:46;11.23;;;4.50;;
2720;SDS011;1368;49.484;11.112;2023-05-29T08:06:12;7.77;;;4.20;;
2720;SDS011;1368;49.484;11.112;2023-05-29T08:08:38;5.80;;;3.93;;
2720;SDS011;1368;49.484;11.112;2023-05-29T08:11:03;7.40;;;3.70;;
2720;SDS011;1368;49.484;11.112;2023-05-29T08:13:29;7.80;;;3.50;;
2720;SDS011;1368;49.484;11.112;2023-05-29T08:15:55;6.83;;;4.00;;
2720;SDS011;1368;49.484;11.112;2023-05-29T08:18:21;5.57;;;3.70;;
2720;SDS011;1368;49.484;11.112;2023-05-29T08:20:49;5.60;;;4.03;;
2720;SDS011;1368;49.484;11.112;2023-05-29T08:23:15;6.33;;;4.40;;
2720;SDS011;1368;49.484;11.112;2023-05-29T08:25:41;7.23;;;4.00;;
2720;SDS011;1368;49.484;11.112;2023-05-29T08:28:06;5.27;;;3.80;;
2720;SDS011;1368;49.484;11.112;2023-05-29T08:30:32;4.80;;;3.63;;
2720;SDS011;1368;49.484;11.112;2023-05-29T08:32:57;7.10;;;4.37;;
2720;SDS011;1368;49.484;11.112;2023-05-29T08:35:23;7.70;;;4.10;;
2720;SDS011;1368;49.484;11.112;2023-05-29T08:37:49;9.90;;;4.17;;
2720;SDS011;1368;49.484;11.112;2023-05-29T08:40:15;6.07;;;3.87;;
2720;SDS011;1368;49.484;11.112;2023-05-29T08:42:47;4.90;;;3.10;;
2720;SDS011;1368;49.484;11.112;2023-05-29T08:45:16;7.00;;;4.50;;
2720;SDS011;1368;49.484;11.112;2023-05-29T08:47:46;10.50;;;4.00;;
2720;SDS011;1368;49.484;11.112;2023-05-29T08:50:21;5.10;;;3.40;;
2720;SDS011;1368;49.484;11.112;2023-05-29T08:52:48;6.53;;;3.53;;
2720;SDS011;1368;49.484;11.112;2023-05-29T08:55:14;10.40;;;4.80;;
2720;SDS011;1368;49.484;11.112;2023-05-29T08:57:41;7.83;;;4.10;;
2720;SDS011;1368;49.484;11.112;2023-05-29T09:00:08;6.73;;;3.50;;
2720;SDS011;1368;49.484;11.112;2023-05-29T09:02:39;5.80;;;4.10;;
2720;SDS011;1368;49.484;11.112;2023-05-29T09:05:05;7.00;;;4.47;;
2720;SDS011;1368;49.484;11.112;2023-05-29T09:07:31;8.33;;;4.17;;
2720;SDS011;1368;49.484;11.112;2023-05-29T09:09:57;8.07;;;4.80;;
2720;SDS011;1368;49.484;11.112;2023-05-29T09:12:23;5.60;;;3.40;;
2720;SDS011;1368;49.484;11.112;2023-05-29T09:14:50;6.43;;;4.27;;
2720;SDS011;1368;49.484;11.112;2023-05-29T09:17:15;7.43;;;3.40;;
2720;SDS011;1368;49.484;11.112;2023-05-29T09:19:41;6.20;;;3.80;;
2720;SDS011;1368;49.484;11.112;2023-05-29T09:22:10;5.70;;;3.73;;
2720;SDS011;1368;49.484;11.112;2023-05-29T09:24:40;6.30;;;4.00;;
2720;SDS011;1368;49.484;11.112;2023-05-29T09:27:07;7.47;;;3.93;;
2720;SDS011;1368;49.484;11.112;2023-05-29T09:29:37;7.10;;;4.70;;
2720;SDS011;1368;49.484;11.112;2023-05-29T09:32:06;5.77;;;3.87;;
2720;SDS011;1368;49.484;11.112;2023-05-29T09:34:33;8.30;;;4.67;;
2720;SDS011;1368;49.484;11.112;2023-05-29T09:37:08;5.60;;;3.70;;
2720;SDS011;1368;49.484;11.112;2023-05-29T09:42:14;5.37;;;3.90;;
2720;SDS011;1368;49.484;11.112;2023-05-29T09:44:41;5.97;;;4.30;;
2720;SDS011;1368;49.484;11.112;2023-05-29T09:47:07;6.70;;;3.97;;
2720;SDS011;1368;49.484;11.112;2023-05-29T09:49:33;10.33;;;4.10;;
2720;SDS011;1368;49.484;11.112;2023-05-29T09:51:59;7.43;;;4.00;;
2720;SDS011;1368;49.484;11.112;2023-05-29T09:54:28;5.70;;;4.07;;
2720;SDS011;1368;49.484;11.112;2023-05-29T09:56:55;8.17;;;4.33;;
2720;SDS011;1368;49.484;11.112;2023-05-29T09:59:23;6.00;;;4.13;;
2720;SDS011;1368;49.484;11.112;2023-05-29T10:01:49;5.90;;;4.00;;
2720;SDS011;1368;49.484;11.112;2023-05-29T10:04:26;8.07;;;4.20;;
2720;SDS011;1368;49.484;11.112;2023-05-29T10:06:52;7.77;;;4.03;;
2720;SDS011;1368;49.484;11.112;2023-05-29T10:09:21;7.93;;;3.70;;
2720;SDS011;1368;49.484;11.112;2023-05-29T10:11:50;7.97;;;3.90;;
2720;SDS011;1368;49.484;11.112;2023-05-29T10:14:18;8.57;;;4.23;;
2720;SDS011;1368;49.484;11.112;2023-05-29T10:16:46;5.07;;;4.00;;
2720;SDS011;1368;49.484;11.112;2023-05-29T10:19:13;5.03;;;3.87;;
2720;SDS011;1368;49.484;11.112;2023-05-29T10:21:43;7.43;;;4.37;;
2720;SDS011;1368;49.484;11.112;2023-05-29T10:24:09;5.27;;;3.60;;
2720;SDS011;1368;49.484;11.112;2023-05-29T10:26:37;7.70;;;3.77;;
2720;SDS011;1368;49.484;11.112;2023-05-29T10:29:10;7.90;;;3.63;;
2720;SDS011;1368;49.484;11.112;2023-05-29T10:31:46;6.03;;;3.90;;
2720;SDS011;1368;49.484;11.112;2023-05-29T10:37:47;4.70;;;3.70;;
2720;SDS011;1368;49.484;11.112;2023-05-29T10:40:34;7.20;;;4.97;;
2720;SDS011;1368;49.484;11.112;2023-05-29T10:42:59;5.90;;;4.00;;
2720;SDS011;1368;49.484;11.112;2023-05-29T10:48:28;7.43;;;4.00;;
2720;SDS011;1368;49.484;11.112;2023-05-29T10:53:08;5.73;;;3.57;;
2720;SDS011;1368;49.484;11.112;2023-05-29T10:55:38;6.57;;;4.20;;
2720;SDS011;1368;49.484;11.112;2023-05-29T10:58:08;7.27;;;3.83;;
2720;SDS011;1368;49.484;11.112;2023-05-29T11:00:41;4.47;;;3.70;;
2720;SDS011;1368;49.484;11.112;2023-05-29T11:03:07;7.70;;;4.03;;
2720;SDS011;1368;49.484;11.112;2023-05-29T11:05:33;9.20;;;3.70;;
2720;SDS011;1368;49.484;11.112;2023-05-29T11:08:00;7.57;;;3.63;;
2720;SDS011;1368;49.484;11.112;2023-05-29T11:10:44;6.50;;;4.80;;
2720;SDS011;1368;49.484;11.112;2023-05-29T11:13:36;7.83;;;3.70;;
2720;SDS011;1368;49.484;11.112;2023-05-29T11:18:46;6.23;;;3.90;;
2720;SDS011;1368;49.484;11.112;2023-05-29T11:21:15;7.53;;;4.00;;
2720;SDS011;1368;49.484;11.112;2023-05-29T11:23:53;4.70;;;3.50;;
2720;SDS011;1368;49.484;11.112;2023-05-29T11:26:19;7.00;;;4.10;;
2720;SDS011;1368;49.484;11.112;2023-05-29T11:28:47;7.80;;;3.63;;
2720;SDS011;1368;49.484;11.112;2023-05-29T11:31:13;6.20;;;3.90;;
2720;SDS011;1368;49.484;11.112;2023-05-29T11:33:40;4.90;;;3.40;;
2720;SDS011;1368;49.484;11.112;2023-05-29T11:36:10;6.20;;;4.03;;
2720;SDS011;1368;49.484;11.112;2023-05-29T11:38:36;7.07;;;4.00;;
2720;SDS011;1368;49.484;11.112;2023-05-29T11:41:01;7.63;;;3.57;;
2720;SDS011;1368;49.484;11.112;2023-05-29T11:43:28;5.30;;;3.90;;
2720;SDS011;1368;49.484;11.112;2023-05-29T11:45:54;5.60;;;3.97;;
2720;SDS011;1368;49.484;11.112;2023-05-29T11:48:19;6.47;;;3.90;;
2720;SDS011;1368;49.484;11.112;2023-05-29T11:50:45;6.03;;;3.23;;
2720;SDS011;1368;49.484;11.112;2023-05-29T11:53:11;5.97;;;4.20;;
2720;SDS011;1368;49.484;11.112;2023-05-29T11:55:37;5.90;;;3.80;;
2720;SDS011;1368;49.484;11.112;2023-05-29T11:58:03;5.07;;;3.60;;
2720;SDS011;1368;49.484;11.112;2023-05-29T12:00:35;5.83;;;3.50;;
2720;SDS011;1368;49.484;11.112;2023-05-29T12:03:03;5.77;;;4.00;;
2720;SDS011;1368;49.484;11.112;2023-05-29T12:05:33;4.67;;;3.23;;
2720;SDS011;1368;49.484;11.112;2023-05-29T12:08:10;5.67;;;2.90;;
2720;SDS011;1368;49.484;11.112;2023-05-29T12:10:36;12.20;;;3.53;;
2720;SDS011;1368;49.484;11.112;2023-05-29T12:13:02;4.47;;;3.30;;
2720;SDS011;1368;49.484;11.112;2023-05-29T12:15:28;3.90;;;2.87;;
2720;SDS011;1368;49.484;11.112;2023-05-29T12:17:54;4.20;;;2.70;;
2720;SDS011;1368;49.484;11.112;2023-05-29T12:20:23;5.67;;;3.63;;
2720;SDS011;1368;49.484;11.112;2023-05-29T12:22:51;5.27;;;3.13;;
2720;SDS011;1368;49.484;11.112;2023-05-29T12:25:20;5.13;;;2.87;;
2720;SDS011;1368;49.484;11.112;2023-05-29T12:27:47;5.60;;;3.23;;
2720;SDS011;1368;49.484;11.112;2023-05-29T12:30:14;5.47;;;3.40;;
2720;SDS011;1368;49.484;11.112;2023-05-29T12:32:46;6.97;;;3.33;;
2720;SDS011;1368;49.484;11.112;2023-05-29T12:35:14;4.77;;;2.93;;
2720;SDS011;1368;49.484;11.112;2023-05-29T12:37:56;6.87;;;3.60;;
2720;SDS011;1368;49.484;11.112;2023-05-29T12:40:22;5.50;;;3.17;;
2720;SDS011;1368;49.484;11.112;2023-05-29T12:42:53;6.63;;;3.80;;
2720;SDS011;1368;49.484;11.112;2023-05-29T12:45:20;4.93;;;3.13;;
2720;SDS011;1368;49.484;11.112;2023-05-29T12:47:50;5.20;;;2.80;;
2720;SDS011;1368;49.484;11.112;2023-05-29T12:52:52;6.40;;;2.90;;
2720;SDS011;1368;49.484;11.112;2023-05-29T12:55:20;5.20;;;3.70;;
2720;SDS011;1368;49.484;11.112;2023-05-29T12:57:46;7.17;;;3.30;;
2720;SDS011;1368;49.484;11.112;2023-05-29T13:00:12;5.10;;;4.00;;
2720;SDS011;1368;49.484;11.112;2023-05-29T13:02:38;5.57;;;3.10;;
2720;SDS011;1368;49.484;11.112;2023-05-29T13:05:04;7.40;;;3.57;;
2720;SDS011;1368;49.484;11.112;2023-05-29T13:07:31;4.63;;;2.93;;
2720;SDS011;1368;49.484;11.112;2023-05-29T13:09:57;6.03;;;3.50;;
2720;SDS011;1368;49.484;11.112;2023-05-29T13:12:23;4.73;;;3.20;;
2720;SDS011;1368;49.484;11.112;2023-05-29T13:14:49;7.30;;;3.50;;
2720;SDS011;1368;49.484;11.112;2023-05-29T13:17:15;6.60;;;3.80;;
2720;SDS011;1368;49.484;11.112;2023-05-29T13:19:40;9.30;;;3.30;;
2720;SDS011;1368;49.484;11.112;2023-05-29T13:22:06;17.13;;;3.97;;
2720;SDS011;1368;49.484;11.112;2023-05-29T13:24:32;7.23;;;3.80;;
2720;SDS011;1368;49.484;11.112;2023-05-29T13:26:58;7.03;;;3.50;;
2720;SDS011;1368;49.484;11.112;2023-05-29T13:29:25;4.93;;;3.50;;
2720;SDS011;1368;49.484;11.112;2023-05-29T13:31:51;6.30;;;3.80;;
2720;SDS011;1368;49.484;11.112;2023-05-29T13:34:17;4.60;;;3.33;;
2720;SDS011;1368;49.484;11.112;2023-05-29T13:36:42;7.60;;;4.00;;
2720;SDS011;1368;49.484;11.112;2023-05-29T13:39:09;7.73;;;3.67;;
2720;SDS011;1368;49.484;11.112;2023-05-29T13:41:35;6.87;;;3.47;;
2720;SDS011;1368;49.484;11.112;2023-05-29T13:44:01;5.33;;;3.27;;
2720;SDS011;1368;49.484;11.112;2023-05-29T13:46:27;5.50;;;3.83;;
2720;SDS011;1368;49.484;11.112;2023-05-29T13:48:52;8.13;;;4.10;;
2720;SDS011;1368;49.484;11.112;2023-05-29T13:51:18;9.63;;;3.97;;
2720;SDS011;1368;49.484;11.112;2023-05-29T13:53:43;6.83;;;3.80;;
2720;SDS011;1368;49.484;11.112;2023-05-29T13:56:09;4.00;;;2.80;;
2720;SDS011;1368;49.484;11.112;2023-05-29T13:58:34;5.03;;;3.40;;
2720;SDS011;1368;49.484;11.112;2023-05-29T14:01:00;9.90;;;3.77;;
2720;SDS011;1368;49.484;11.112;2023-05-29T14:03:26;7.90;;;4.33;;
2720;SDS011;1368;49.484;11.112;2023-05-29T14:05:53;6.07;;;4.03;;
2720;SDS011;1368;49.484;11.112;2023-05-29T14:08:19;7.63;;;3.93;;
2720;SDS011;1368;49.484;11.112;2023-05-29T14:10:45;7.03;;;3.67;;
2720;SDS011;1368;49.484;11.112;2023-05-29T14:13:11;5.67;;;3.10;;
2720;SDS011;1368;49.484;11.112;2023-05-29T14:15:36;5.40;;;3.73;;
2720;SDS011;1368;49.484;11.112;2023-05-29T14:18:02;5.63;;;3.63;;
2720;SDS011;1368;49.484;11.112;2023-05-29T14:20:28;5.17;;;3.13;;
2720;SDS011;1368;49.484;11.112;2023-05-29T14:22:54;6.20;;;4.37;;
2720;SDS011;1368;49.484;11.112;2023-05-29T14:25:19;5.07;;;3.30;;
2720;SDS011;1368;49.484;11.112;2023-05-29T14:27:45;6.83;;;3.70;;
2720;SDS011;1368;49.484;11.112;2023-05-29T14:30:11;6.60;;;3.50;;
2720;SDS011;1368;49.484;11.112;2023-05-29T14:32:36;6.10;;;3.73;;
2720;SDS011;1368;49.484;11.112;2023-05-29T14:35:02;4.90;;;3.67;;
2720;SDS011;1368;49.484;11.112;2023-05-29T14:37:27;5.37;;;3.43;;
2720;SDS011;1368;49.484;11.112;2023-05-29T14:39:53;6.77;;;3.33;;
2720;SDS011;1368;49.484;11.112;2023-05-29T14:42:19;6.50;;;3.90;;
2720;SDS011;1368;49.484;11.112;2023-05-29T14:44:45;4.80;;;2.87;;
2720;SDS011;1368;49.484;11.112;2023-05-29T14:47:11;4.57;;;3.60;;
2720;SDS011;1368;49.484;11.112;2023-05-29T14:49:37;6.40;;;3.77;;
2720;SDS011;1368;49.484;11.112;2023-05-29T14:52:03;6.43;;;3.83;;
2720;SDS011;1368;49.484;11.112;2023-05-29T14:54:29;7.93;;;3.50;;
2720;SDS011;1368;49.484;11.112;2023-05-29T14:56:55;9.23;;;4.23;;
2720;SDS011;1368;49.484;11.112;2023-05-29T14:59:22;6.20;;;3.67;;
2720;SDS011;1368;49.484;11.112;2023-05-29T15:01:48;5.73;;;3.40;;
2720;SDS011;1368;49.484;11.112;2023-05-29T15:04:15;5.90;;;3.90;;
2720;SDS011;1368;49.484;11.112;2023-05-29T15:06:41;9.43;;;3.80;;
2720;SDS011;1368;49.484;11.112;2023-05-29T15:09:06;6.03;;;3.73;;
2720;SDS011;1368;49.484;11.112;2023-05-29T15:11:32;8.60;;;4.70;;
2720;SDS011;1368;49.484;11.112;2023-05-29T15:13:57;5.77;;;3.37;;
2720;SDS011;1368;49.484;11.112;2023-05-29T15:16:23;5.53;;;3.43;;
2720;SDS011;1368;49.484;11.112;2023-05-29T15:18:49;9.43;;;4.00;;
2720;SDS011;1368;49.484;11.112;2023-05-29T15:21:15;5.17;;;3.53;;